createdAt,value
2018-02-21T00:01:18.817Z,91.88
2018-02-21T00:03:46.430Z,92.05
2018-02-21T00:06:14.096Z,92.12
2018-02-21T00:08:41.741Z,92.06
2018-02-21T00:11:09.569Z,92.52
2018-02-21T00:13:37.310Z,93.27
2018-02-21T00:16:05.009Z,93.60
2018-02-21T00:18:32.744Z,93.17
2018-02-21T00:21:00.575Z,93.27
2018-02-21T00:23:28.457Z,93.35
2018-02-21T00:25:56.066Z,93.64
2018-02-21T00:28:23.812Z,93.56
2018-02-21T00:30:51.593Z,93.47
2018-02-21T00:33:19.263Z,94.32
2018-02-21T00:35:47.135Z,94.99
2018-02-21T00:38:15.022Z,94.82
2018-02-21T00:40:42.694Z,95.22
2018-02-21T00:43:10.475Z,95.71
2018-02-21T00:45:38.359Z,96.16
2018-02-21T00:48:05.982Z,96.10
2018-02-21T00:50:33.606Z,96.51
2018-02-21T00:53:01.484Z,96.12
2018-02-21T00:55:29.262Z,96.17
2018-02-21T00:57:56.918Z,95.94
2018-02-21T01:00:24.818Z,95.84
2018-02-21T01:02:52.513Z,95.92
2018-02-21T01:05:20.167Z,95.72
2018-02-21T01:07:48.046Z,95.20
2018-02-21T01:10:15.705Z,95.82
2018-02-21T01:12:43.499Z,95.67
2018-02-21T01:15:11.277Z,95.33
2018-02-21T01:17:38.905Z,95.30
2018-02-21T01:20:06.732Z,95.17
2018-02-21T01:22:34.398Z,95.32
2018-02-21T01:25:02.133Z,95.34
2018-02-21T01:27:29.901Z,95.01
2018-02-21T01:29:57.640Z,95.06
2018-02-21T01:32:25.304Z,94.78
2018-02-21T01:34:53.096Z,94.81
2018-02-21T01:37:20.759Z,94.57
2018-02-21T01:39:48.645Z,94.78
2018-02-21T01:42:16.424Z,94.73
2018-02-21T01:44:44.103Z,94.79
2018-02-21T01:47:11.828Z,95.22
2018-02-21T01:49:39.452Z,94.99
2018-02-21T01:52:07.188Z,94.61
2018-02-21T01:54:34.889Z,94.31
2018-02-21T01:57:02.645Z,94.07
2018-02-21T01:59:30.351Z,94.69
2018-02-21T02:01:58.027Z,94.63
2018-02-21T02:04:26.733Z,94.23
2018-02-21T02:06:54.510Z,93.97
2018-02-21T02:09:22.187Z,93.96
2018-02-21T02:11:49.773Z,94.10
2018-02-21T02:14:18.252Z,94.21
2018-02-21T02:16:45.932Z,94.89
2018-02-21T02:19:13.540Z,94.49
2018-02-21T02:21:41.193Z,94.69
2018-02-21T02:24:08.854Z,94.81
2018-02-21T02:26:36.523Z,95.08
2018-02-21T02:29:04.205Z,95.24
2018-02-21T02:31:31.880Z,95.39
2018-02-21T02:33:59.465Z,95.98
2018-02-21T02:36:27.320Z,95.76
2018-02-21T02:39:06.777Z,96.10
2018-02-21T02:41:34.452Z,96.30
2018-02-21T02:44:02.126Z,96.70
2018-02-21T02:46:29.819Z,96.31
2018-02-21T02:48:57.413Z,96.34
2018-02-21T02:51:25.252Z,96.27
2018-02-21T02:53:52.867Z,96.48
2018-02-21T02:56:20.715Z,96.67
2018-02-21T02:58:48.479Z,96.91
2018-02-21T03:01:16.155Z,97.01
2018-02-21T03:03:43.846Z,96.96
2018-02-21T03:06:11.573Z,97.07
2018-02-21T03:08:39.297Z,97.08
2018-02-21T03:11:06.943Z,96.95
2018-02-21T03:13:34.852Z,96.75
2018-02-21T03:16:02.633Z,96.76
2018-02-21T03:18:30.307Z,96.75
2018-02-21T03:20:58.086Z,97.44
2018-02-21T03:23:25.757Z,97.94
2018-02-21T03:25:53.504Z,97.73
2018-02-21T03:28:21.212Z,97.78
2018-02-21T03:30:48.883Z,97.73
2018-02-21T03:33:16.511Z,97.85
2018-02-21T03:35:44.343Z,97.88
2018-02-21T03:38:11.996Z,97.89
2018-02-21T03:40:39.796Z,98.00
2018-02-21T03:43:07.543Z,98.05
2018-02-21T03:45:35.231Z,98.10
2018-02-21T03:48:02.872Z,98.66
2018-02-21T03:50:30.461Z,98.86
2018-02-21T03:52:58.176Z,98.72
2018-02-21T03:55:25.847Z,98.78
2018-02-21T03:57:53.525Z,98.34
2018-02-21T04:00:21.183Z,98.48
2018-02-21T04:02:48.975Z,98.36
2018-02-21T04:05:16.720Z,98.75
2018-02-21T04:07:44.349Z,99.27
2018-02-21T04:10:11.942Z,99.39
2018-02-21T04:12:39.676Z,99.44
2018-02-21T04:15:07.408Z,99.51
2018-02-21T04:17:35.148Z,99.46
2018-02-21T04:20:02.805Z,99.58
2018-02-21T04:22:30.479Z,99.25
2018-02-21T04:24:58.156Z,99.33
2018-02-21T04:27:25.891Z,99.61
2018-02-21T04:29:54.128Z,100.00
2018-02-21T04:32:21.785Z,99.55
2018-02-21T04:34:49.576Z,99.41
2018-02-21T04:37:17.197Z,99.45
2018-02-21T04:39:45.033Z,99.71
2018-02-21T04:42:12.704Z,99.45
2018-02-21T04:44:40.482Z,99.66
2018-02-21T04:47:08.104Z,99.75
2018-02-21T04:49:35.723Z,99.70
2018-02-21T04:52:03.611Z,99.44
2018-02-21T04:57:53.242Z,99.50
2018-02-21T05:00:22.040Z,100.00
2018-02-21T05:02:49.639Z,100.00
2018-02-21T05:05:17.480Z,100.00
2018-02-21T05:07:45.271Z,100.00
2018-02-21T05:10:12.889Z,100.00
2018-02-21T05:12:40.657Z,100.00
2018-02-21T05:15:08.285Z,99.69
2018-02-21T05:17:35.942Z,99.96
2018-02-21T05:20:03.639Z,99.68
2018-02-21T05:22:31.454Z,99.37
2018-02-21T05:24:59.414Z,100.00
2018-02-21T05:27:27.182Z,99.53
2018-02-21T05:29:54.863Z,99.22
2018-02-21T05:32:22.566Z,99.47
2018-02-21T05:34:50.291Z,99.74
2018-02-21T05:37:18.100Z,99.47
2018-02-21T05:39:45.872Z,99.38
2018-02-21T05:42:13.652Z,99.22
2018-02-21T05:44:41.322Z,99.49
2018-02-21T05:47:08.976Z,99.36
2018-02-21T05:49:36.784Z,99.89
2018-02-21T05:52:04.455Z,99.49
2018-02-21T05:54:32.337Z,99.46
2018-02-21T05:57:00.009Z,99.81
2018-02-21T05:59:27.668Z,99.82
2018-02-21T06:01:55.458Z,99.80
2018-02-21T06:04:23.251Z,99.84
2018-02-21T06:06:51.020Z,100.00
2018-02-21T06:09:18.797Z,100.00
2018-02-21T06:11:46.662Z,100.00
2018-02-21T06:14:14.257Z,100.00
2018-02-21T06:16:41.895Z,100.00
2018-02-21T06:19:09.703Z,100.00
2018-02-21T06:21:37.370Z,100.00
2018-02-21T06:24:05.039Z,100.00
2018-02-21T06:26:32.727Z,100.00
2018-02-21T06:29:00.406Z,100.00
2018-02-21T06:31:28.180Z,100.00
2018-02-21T06:33:55.797Z,100.00
2018-02-21T06:36:23.640Z,100.00
2018-02-21T06:38:51.401Z,100.00
2018-02-21T06:41:19.156Z,100.00
2018-02-21T06:43:46.761Z,100.00
2018-02-21T06:46:14.548Z,100.00
2018-02-21T06:48:42.324Z,100.00
2018-02-21T06:51:09.994Z,100.00
2018-02-21T06:53:37.770Z,100.00
2018-02-21T06:56:05.446Z,100.00
2018-02-21T06:58:33.128Z,100.00
2018-02-21T07:01:00.800Z,100.00
2018-02-21T07:03:28.577Z,100.00
2018-02-21T07:05:56.256Z,100.00
2018-02-21T07:08:23.849Z,100.00
2018-02-21T07:10:51.713Z,100.00
2018-02-21T07:13:19.378Z,100.00
2018-02-21T07:15:47.038Z,100.00
2018-02-21T07:18:14.802Z,100.00
2018-02-21T07:20:42.509Z,100.00
2018-02-21T07:23:10.181Z,100.00
2018-02-21T07:25:37.863Z,100.00
2018-02-21T07:28:05.540Z,99.36
2018-02-21T07:30:33.315Z,99.36
2018-02-21T07:33:00.998Z,98.99
2018-02-21T07:35:28.844Z,99.49
2018-02-21T07:37:56.544Z,99.03
2018-02-21T07:40:24.328Z,99.23
2018-02-21T07:42:52.204Z,99.35
2018-02-21T07:45:19.985Z,98.93
2018-02-21T07:47:47.590Z,98.44
2018-02-21T07:50:15.362Z,98.23
2018-02-21T07:52:43.007Z,98.99
2018-02-21T07:55:10.748Z,98.11
2018-02-21T07:57:38.566Z,97.71
2018-02-21T08:00:06.172Z,97.53
2018-02-21T08:02:33.915Z,97.41
2018-02-21T08:05:01.719Z,97.26
2018-02-21T08:07:29.476Z,97.88
2018-02-21T08:09:57.143Z,97.15
2018-02-21T08:12:24.819Z,97.47
2018-02-21T08:14:52.486Z,96.81
2018-02-21T08:17:20.173Z,96.96
2018-02-21T08:19:47.903Z,97.74
2018-02-21T08:22:15.732Z,96.99
2018-02-21T08:24:43.468Z,96.76
2018-02-21T08:27:11.174Z,96.91
2018-02-21T08:29:38.950Z,96.48
2018-02-21T08:32:06.637Z,96.52
2018-02-21T08:34:34.257Z,95.71
2018-02-21T08:37:01.990Z,95.26
2018-02-21T08:39:29.765Z,95.09
2018-02-21T08:41:57.857Z,94.78
2018-02-21T08:44:25.735Z,94.45
2018-02-21T08:46:53.609Z,94.70
2018-02-21T08:49:21.245Z,94.53
2018-02-21T08:51:48.955Z,94.62
2018-02-21T08:54:16.945Z,94.33
2018-02-21T08:56:44.534Z,94.56
2018-02-21T08:59:12.173Z,93.62
2018-02-21T09:01:39.970Z,93.83
2018-02-21T09:04:07.748Z,93.51
2018-02-21T09:06:35.476Z,92.63
2018-02-21T09:09:03.305Z,92.31
2018-02-21T09:11:31.081Z,92.32
2018-02-21T09:13:58.860Z,92.02
2018-02-21T09:16:26.582Z,91.66
2018-02-21T09:18:54.401Z,91.20
2018-02-21T09:21:22.135Z,91.70
2018-02-21T09:23:49.762Z,91.07
2018-02-21T09:26:17.431Z,90.69
2018-02-21T09:28:45.171Z,90.62
2018-02-21T09:31:12.901Z,90.71
2018-02-21T09:33:40.776Z,89.48
2018-02-21T09:36:08.365Z,90.04
2018-02-21T09:38:36.021Z,89.49
2018-02-21T09:41:03.748Z,89.20
2018-02-21T09:43:31.491Z,89.18
2018-02-21T09:45:59.254Z,88.91
2018-02-21T09:48:26.995Z,89.09
2018-02-21T09:50:54.812Z,88.35
2018-02-21T09:53:22.470Z,87.15
2018-02-21T09:55:50.157Z,86.71
2018-02-21T09:58:17.828Z,86.28
2018-02-21T10:00:45.716Z,86.28
2018-02-21T10:03:13.381Z,86.00
2018-02-21T10:05:40.984Z,85.13
2018-02-21T10:08:08.652Z,85.17
2018-02-21T10:10:36.316Z,85.87
2018-02-21T10:13:04.091Z,85.68
2018-02-21T10:15:31.830Z,86.43
2018-02-21T10:17:59.550Z,86.44
2018-02-21T10:20:27.431Z,84.97
2018-02-21T10:22:55.090Z,83.34
2018-02-21T10:25:22.771Z,84.12
2018-02-21T10:27:50.426Z,83.95
2018-02-21T10:30:18.022Z,83.72
2018-02-21T10:32:45.696Z,83.10
2018-02-21T10:35:13.328Z,82.52
2018-02-21T10:37:41.158Z,81.93
2018-02-21T10:40:09.027Z,81.89
2018-02-21T10:42:36.715Z,80.95
2018-02-21T10:45:04.492Z,81.81
2018-02-21T10:47:32.145Z,80.19
2018-02-21T10:49:59.913Z,79.87
2018-02-21T10:52:27.725Z,79.02
2018-02-21T10:54:55.402Z,80.77
2018-02-21T10:57:23.177Z,78.17
2018-02-21T10:59:50.850Z,77.98
2018-02-21T11:02:18.515Z,78.87
2018-02-21T11:04:46.198Z,78.17
2018-02-21T11:07:13.979Z,76.65
2018-02-21T11:09:41.615Z,75.95
2018-02-21T11:12:09.434Z,75.57
2018-02-21T11:14:37.017Z,75.08
2018-02-21T11:17:04.600Z,75.35
2018-02-21T11:19:32.236Z,74.29
2018-02-21T11:22:00.031Z,73.87
2018-02-21T11:24:27.810Z,73.54
2018-02-21T11:26:55.466Z,74.06
2018-02-21T11:29:23.045Z,73.86
2018-02-21T11:31:50.784Z,74.51
2018-02-21T11:34:19.229Z,75.13
2018-02-21T11:36:46.845Z,73.57
2018-02-21T11:39:14.578Z,72.79
2018-02-21T11:41:42.297Z,72.26
2018-02-21T11:44:09.934Z,72.12
2018-02-21T11:46:37.707Z,72.17
2018-02-21T11:49:05.486Z,70.99
2018-02-21T11:51:33.239Z,71.85
2018-02-21T11:54:00.940Z,70.81
2018-02-21T11:56:28.598Z,70.79
2018-02-21T11:58:56.395Z,69.37
2018-02-21T12:01:24.171Z,71.68
2018-02-21T12:03:51.831Z,71.56
2018-02-21T12:06:19.727Z,71.72
2018-02-21T12:08:47.307Z,72.26
2018-02-21T12:11:14.971Z,72.19
2018-02-21T12:13:42.648Z,71.52
2018-02-21T12:16:10.320Z,70.75
2018-02-21T12:18:38.103Z,69.70
2018-02-21T12:21:05.937Z,71.34
2018-02-21T12:23:33.541Z,69.62
2018-02-21T12:26:01.334Z,71.30
2018-02-21T12:28:29.216Z,69.94
2018-02-21T12:30:56.993Z,70.16
2018-02-21T12:33:24.772Z,70.57
2018-02-21T12:35:52.545Z,69.35
2018-02-21T12:38:20.425Z,69.69
2018-02-21T12:40:53.722Z,69.51
2018-02-21T12:43:21.514Z,69.03
2018-02-21T12:45:49.287Z,68.59
2018-02-21T12:48:16.878Z,68.61
2018-02-21T12:50:44.746Z,67.51
2018-02-21T12:53:12.335Z,67.53
2018-02-21T12:55:39.928Z,68.42
2018-02-21T12:58:07.657Z,69.02
2018-02-21T13:00:35.240Z,68.48
2018-02-21T13:03:02.912Z,67.67
2018-02-21T13:05:30.594Z,66.76
2018-02-21T13:07:58.253Z,67.48
2018-02-21T13:10:26.046Z,66.86
2018-02-21T13:12:53.723Z,66.11
2018-02-21T13:15:21.383Z,67.08
2018-02-21T13:17:49.140Z,66.28
2018-02-21T13:20:16.958Z,66.68
2018-02-21T13:22:44.630Z,67.44
2018-02-21T13:25:12.258Z,66.85
2018-02-21T13:27:39.986Z,66.31
2018-02-21T13:30:07.653Z,66.42
2018-02-21T13:32:35.385Z,66.98
2018-02-21T13:35:03.209Z,65.99
2018-02-21T13:37:30.829Z,66.03
2018-02-21T13:39:58.562Z,65.79
2018-02-21T13:42:26.181Z,64.93
2018-02-21T13:44:53.913Z,64.61
2018-02-21T13:47:21.541Z,64.46
2018-02-21T13:49:49.146Z,63.51
2018-02-21T13:52:16.832Z,63.54
2018-02-21T13:54:44.507Z,61.96
2018-02-21T13:57:12.249Z,62.70
2018-02-21T13:59:40.069Z,62.39
2018-02-21T14:02:07.732Z,61.29
2018-02-21T14:04:36.335Z,61.73
2018-02-21T14:07:04.010Z,62.93
2018-02-21T14:09:31.687Z,63.25
2018-02-21T14:11:59.365Z,63.22
2018-02-21T14:14:27.140Z,61.93
2018-02-21T14:16:54.716Z,62.43
2018-02-21T14:19:22.387Z,62.48
2018-02-21T14:21:50.113Z,62.26
2018-02-21T14:24:17.841Z,62.63
2018-02-21T14:26:45.511Z,62.47
2018-02-21T14:29:13.187Z,63.48
2018-02-21T14:31:40.930Z,64.10
2018-02-21T14:34:08.648Z,62.99
2018-02-21T14:36:36.313Z,63.45
2018-02-21T14:39:04.102Z,61.56
2018-02-21T14:41:31.884Z,59.94
2018-02-21T14:43:59.659Z,60.88
2018-02-21T14:46:27.271Z,60.89
2018-02-21T14:48:55.012Z,62.53
2018-02-21T14:51:22.682Z,62.36
2018-02-21T14:53:50.362Z,62.51
2018-02-21T14:56:18.249Z,62.57
2018-02-21T14:58:46.020Z,62.54
2018-02-21T15:01:13.605Z,62.31
2018-02-21T15:03:41.372Z,62.49
2018-02-21T15:06:08.992Z,62.24
2018-02-21T15:08:36.724Z,61.24
2018-02-21T15:11:04.491Z,61.49
2018-02-21T15:13:32.228Z,61.94
2018-02-21T15:15:59.829Z,61.24
2018-02-21T15:18:27.443Z,60.64
2018-02-21T15:20:55.100Z,61.47
2018-02-21T15:23:22.985Z,60.82
2018-02-21T15:25:50.652Z,61.01
2018-02-21T15:28:18.237Z,61.84
2018-02-21T15:30:46.002Z,61.85
2018-02-21T15:33:13.585Z,61.99
2018-02-21T15:35:41.356Z,62.05
2018-02-21T15:38:09.018Z,62.58
2018-02-21T15:40:36.763Z,62.58
2018-02-21T15:43:04.365Z,62.80
2018-02-21T15:45:32.148Z,62.21
2018-02-21T15:47:59.781Z,63.01
2018-02-21T15:50:27.438Z,63.65
2018-02-21T15:52:55.289Z,64.36
2018-02-21T15:55:22.966Z,64.40
2018-02-21T15:57:50.637Z,65.14
2018-02-21T16:00:18.296Z,65.85
2018-02-21T16:02:45.980Z,66.49
2018-02-21T16:05:13.873Z,66.75
2018-02-21T16:07:41.648Z,67.39
2018-02-21T16:10:09.382Z,68.03
2018-02-21T16:12:37.207Z,68.41
2018-02-21T16:15:04.985Z,68.41
2018-02-21T16:17:32.661Z,68.57
2018-02-21T16:20:00.402Z,69.02
2018-02-21T16:22:28.114Z,69.26
2018-02-21T16:24:55.771Z,69.78
2018-02-21T16:27:23.458Z,70.02
2018-02-21T16:29:51.216Z,70.51
2018-02-21T16:32:19.004Z,70.93
2018-02-21T16:34:46.587Z,71.28
2018-02-21T16:37:14.249Z,71.53
2018-02-21T16:39:42.044Z,71.79
2018-02-21T16:42:09.773Z,72.05
2018-02-21T16:44:37.394Z,72.12
2018-02-21T16:47:05.062Z,72.34
2018-02-21T16:49:32.794Z,72.61
2018-02-21T16:52:00.627Z,72.62
2018-02-21T16:54:28.291Z,72.67
2018-02-21T16:56:56.068Z,73.85
2018-02-21T16:59:23.853Z,73.64
2018-02-21T17:01:51.634Z,74.05
2018-02-21T17:04:19.323Z,74.79
2018-02-21T17:06:47.087Z,75.06
2018-02-21T17:09:14.697Z,75.43
2018-02-21T17:11:42.542Z,75.70
2018-02-21T17:14:10.199Z,76.18
2018-02-21T17:16:37.893Z,77.03
2018-02-21T17:19:05.568Z,77.91
2018-02-21T17:21:33.192Z,77.24
2018-02-21T17:24:00.921Z,77.46
2018-02-21T17:26:28.770Z,77.81
2018-02-21T17:28:56.475Z,77.68
2018-02-21T17:31:24.153Z,77.66
2018-02-21T17:33:51.930Z,77.90
2018-02-21T17:36:19.513Z,77.87
2018-02-21T17:38:47.121Z,78.65
2018-02-21T17:41:20.381Z,78.50
2018-02-21T17:43:48.039Z,79.23
2018-02-21T17:46:15.736Z,80.05
2018-02-21T17:48:43.361Z,79.66
2018-02-21T17:51:11.012Z,79.37
2018-02-21T17:53:38.645Z,79.64
2018-02-21T17:56:06.340Z,79.48
2018-02-21T17:58:34.115Z,78.95
2018-02-21T18:01:01.898Z,79.47
2018-02-21T18:03:29.500Z,79.43
2018-02-21T18:05:57.087Z,79.23
2018-02-21T18:08:24.915Z,79.01
2018-02-21T18:10:52.590Z,78.98
2018-02-21T18:13:20.267Z,78.63
2018-02-21T18:15:47.936Z,78.92
2018-02-21T18:18:15.560Z,79.05
2018-02-21T18:20:43.293Z,79.27
2018-02-21T18:23:10.968Z,79.32
2018-02-21T18:25:38.752Z,79.25
2018-02-21T18:28:06.639Z,79.62
2018-02-21T18:30:34.509Z,79.45
2018-02-21T18:33:02.149Z,79.62
2018-02-21T18:35:29.855Z,79.60
2018-02-21T18:37:57.639Z,79.75
2018-02-21T18:40:25.714Z,79.47
2018-02-21T18:42:53.316Z,79.56
2018-02-21T18:45:21.177Z,78.96
2018-02-21T18:47:48.902Z,78.93
2018-02-21T18:50:16.819Z,78.69
2018-02-21T18:52:44.424Z,78.33
2018-02-21T18:55:12.184Z,78.21
2018-02-21T18:57:39.836Z,78.05
2018-02-21T19:00:07.537Z,78.00
2018-02-21T19:02:35.198Z,78.06
2018-02-21T19:05:02.988Z,77.74
2018-02-21T19:07:30.761Z,78.03
2018-02-21T19:09:58.544Z,78.49
2018-02-21T19:12:26.327Z,78.60
2018-02-21T19:14:54.014Z,78.71
2018-02-21T19:17:21.726Z,78.61
2018-02-21T19:19:49.323Z,78.67
2018-02-21T19:22:17.021Z,78.53
2018-02-21T19:24:44.802Z,78.60
2018-02-21T19:27:12.484Z,78.87
2018-02-21T19:29:40.151Z,79.08
2018-02-21T19:32:07.934Z,79.15
2018-02-21T19:34:35.583Z,79.18
2018-02-21T19:37:03.280Z,79.20
2018-02-21T19:39:30.950Z,79.35
2018-02-21T19:41:58.688Z,78.77
2018-02-21T19:44:26.278Z,78.71
2018-02-21T19:46:54.074Z,78.67
2018-02-21T19:49:21.760Z,78.77
2018-02-21T19:51:49.439Z,78.75
2018-02-21T19:54:17.316Z,78.76
2018-02-21T19:56:45.096Z,78.89
2018-02-21T19:59:12.771Z,78.83
2018-02-21T20:01:40.521Z,79.00
2018-02-21T20:04:08.220Z,79.14
2018-02-21T20:06:35.808Z,79.54
2018-02-21T20:09:03.499Z,79.69
2018-02-21T20:11:31.355Z,79.88
2018-02-21T20:13:59.127Z,79.78
2018-02-21T20:16:26.913Z,79.99
2018-02-21T20:18:54.690Z,80.57
2018-02-21T20:21:22.319Z,80.98
2018-02-21T20:23:50.038Z,80.70
2018-02-21T20:26:17.800Z,80.22
2018-02-21T20:28:45.397Z,79.92
2018-02-21T20:31:13.062Z,79.83
2018-02-21T20:33:40.944Z,79.77
2018-02-21T20:36:08.727Z,79.64
2018-02-21T20:38:36.398Z,79.58
2018-02-21T20:41:04.280Z,80.22
2018-02-21T20:43:32.096Z,80.69
2018-02-21T20:45:59.821Z,80.90
2018-02-21T20:48:27.610Z,81.03
2018-02-21T20:50:55.390Z,81.19
2018-02-21T20:53:23.168Z,81.03
2018-02-21T20:55:50.928Z,81.35
2018-02-21T20:58:18.611Z,80.55
2018-02-21T21:00:46.210Z,80.65
2018-02-21T21:03:13.877Z,81.00
2018-02-21T21:05:41.539Z,80.56
2018-02-21T21:08:09.145Z,80.54
2018-02-21T21:10:36.812Z,80.63
2018-02-21T21:13:04.555Z,80.81
2018-02-21T21:15:32.246Z,80.29
2018-02-21T21:18:00.025Z,80.05
2018-02-21T21:20:27.690Z,80.33
2018-02-21T21:22:55.291Z,79.98
2018-02-21T21:25:23.100Z,79.81
2018-02-21T21:27:50.706Z,80.08
2018-02-21T21:30:18.510Z,79.72
2018-02-21T21:32:46.182Z,79.50
2018-02-21T21:35:13.844Z,79.83
2018-02-21T21:37:41.587Z,79.72
2018-02-21T21:40:09.307Z,79.83
2018-02-21T21:42:37.038Z,79.97
2018-02-21T21:45:04.743Z,80.09
2018-02-21T21:47:32.429Z,80.41
2018-02-21T21:50:03.418Z,80.10
2018-02-21T21:52:31.270Z,80.06
2018-02-21T21:54:59.681Z,79.90
2018-02-21T21:57:27.436Z,80.07
2018-02-21T21:59:55.119Z,79.72
2018-02-21T22:02:22.789Z,79.41
2018-02-21T22:04:51.279Z,79.49
2018-02-21T22:07:18.877Z,79.56
2018-02-21T22:09:46.508Z,79.10
2018-02-21T22:12:14.284Z,79.07
2018-02-21T22:14:41.880Z,79.37
2018-02-21T22:17:09.664Z,79.24
2018-02-21T22:19:37.548Z,78.92
2018-02-21T22:22:05.136Z,78.85
2018-02-21T22:24:32.774Z,78.62
2018-02-21T22:27:00.572Z,78.71
2018-02-21T22:29:28.342Z,78.59
2018-02-21T22:31:56.129Z,78.73
2018-02-21T22:34:23.796Z,79.06
2018-02-21T22:36:51.472Z,79.33
2018-02-21T22:39:19.151Z,79.47
2018-02-21T22:41:46.759Z,79.70
2018-02-21T22:44:14.470Z,80.42
2018-02-21T22:46:42.165Z,80.48
2018-02-21T22:49:09.962Z,80.75
2018-02-21T22:51:37.840Z,80.85
2018-02-21T22:54:05.461Z,81.37
2018-02-21T22:56:33.118Z,81.03
2018-02-21T22:59:00.755Z,81.36
2018-02-21T23:01:28.426Z,81.44
2018-02-21T23:03:56.179Z,81.52
2018-02-21T23:06:23.820Z,81.88
2018-02-21T23:08:51.438Z,82.13
2018-02-21T23:11:19.244Z,82.03
2018-02-21T23:13:47.068Z,82.25
2018-02-21T23:16:14.714Z,82.53
2018-02-21T23:18:42.314Z,82.55
2018-02-21T23:21:09.913Z,82.80
2018-02-21T23:23:37.619Z,82.36
2018-02-21T23:26:05.345Z,82.20
2018-02-21T23:28:32.955Z,82.07
2018-02-21T23:31:00.749Z,81.86
2018-02-21T23:33:28.399Z,82.09
2018-02-21T23:35:56.203Z,81.83
2018-02-21T23:38:23.886Z,81.70
2018-02-21T23:40:51.655Z,81.99
2018-02-21T23:43:19.514Z,81.91
2018-02-21T23:45:47.138Z,81.72
2018-02-21T23:48:15.093Z,81.58
2018-02-21T23:50:42.695Z,81.71
2018-02-21T23:53:10.342Z,81.36
2018-02-21T23:55:38.218Z,81.29
2018-02-21T23:58:05.813Z,81.30
